sensor_id;sensor_type;location;lat;lon;timestamp;P1;durP1;ratioP1;P2;durP2;ratioP2
37851;SDS011;23691;52.486;4.650;2023-06-22T00:01:53;24.37;;;14.03;;
37851;SDS011;23691;52.486;4.650;2023-06-22T00:04:18;24.02;;;13.98;;
37851;SDS011;23691;52.486;4.650;2023-06-22T00:06:44;21.35;;;12.63;;
37851;SDS011;23691;52.486;4.650;2023-06-22T00:09:09;24.30;;;13.70;;
37851;SDS011;23691;52.486;4.650;2023-06-22T00:11:36;22.87;;;14.33;;
37851;SDS011;23691;52.486;4.650;2023-06-22T00:14:05;22.75;;;14.13;;
37851;SDS011;23691;52.486;4.650;2023-06-22T00:16:31;24.20;;;13.90;;
37851;SDS011;23691;52.486;4.650;2023-06-22T00:18:58;26.58;;;15.95;;
37851;SDS011;23691;52.486;4.650;2023-06-22T00:21:27;28.65;;;16.30;;
37851;SDS011;23691;52.486;4.650;2023-06-22T00:23:52;26.85;;;16.15;;
37851;SDS011;23691;52.486;4.650;2023-06-22T00:26:18;31.33;;;17.48;;
37851;SDS011;23691;52.486;4.650;2023-06-22T00:28:44;28.58;;;17.65;;
37851;SDS011;23691;52.486;4.650;2023-06-22T00:31:09;32.90;;;19.48;;
37851;SDS011;23691;52.486;4.650;2023-06-22T00:33:35;28.25;;;18.23;;
37851;SDS011;23691;52.486;4.650;2023-06-22T00:36:00;32.42;;;19.38;;
37851;SDS011;23691;52.486;4.650;2023-06-22T00:38:28;34.37;;;20.40;;
37851;SDS011;23691;52.486;4.650;2023-06-22T00:40:54;31.98;;;18.80;;
37851;SDS011;23691;52.486;4.650;2023-06-22T00:43:21;34.92;;;19.90;;
37851;SDS011;23691;52.486;4.650;2023-06-22T00:45:48;35.85;;;19.73;;
37851;SDS011;23691;52.486;4.650;2023-06-22T00:48:14;30.90;;;17.77;;
37851;SDS011;23691;52.486;4.650;2023-06-22T00:50:40;34.53;;;19.80;;
37851;SDS011;23691;52.486;4.650;2023-06-22T00:53:06;36.90;;;21.30;;
37851;SDS011;23691;52.486;4.650;2023-06-22T00:55:34;34.63;;;19.55;;
37851;SDS011;23691;52.486;4.650;2023-06-22T00:58:03;33.80;;;19.58;;
37851;SDS011;23691;52.486;4.650;2023-06-22T01:00:35;36.05;;;20.80;;
37851;SDS011;23691;52.486;4.650;2023-06-22T01:03:02;37.53;;;20.60;;
37851;SDS011;23691;52.486;4.650;2023-06-22T01:05:28;33.05;;;19.38;;
37851;SDS011;23691;52.486;4.650;2023-06-22T01:16:21;37.38;;;20.38;;
37851;SDS011;23691;52.486;4.650;2023-06-22T01:18:50;35.55;;;20.98;;
37851;SDS011;23691;52.486;4.650;2023-06-22T01:21:20;33.33;;;18.92;;
37851;SDS011;23691;52.486;4.650;2023-06-22T01:29:22;36.45;;;20.67;;
37851;SDS011;23691;52.486;4.650;2023-06-22T01:31:51;31.83;;;19.65;;
37851;SDS011;23691;52.486;4.650;2023-06-22T01:34:19;35.25;;;19.88;;
37851;SDS011;23691;52.486;4.650;2023-06-22T01:36:46;30.35;;;20.25;;
37851;SDS011;23691;52.486;4.650;2023-06-22T01:39:12;31.00;;;20.10;;
37851;SDS011;23691;52.486;4.650;2023-06-22T01:41:39;33.25;;;20.02;;
37851;SDS011;23691;52.486;4.650;2023-06-22T01:44:07;31.73;;;19.13;;
37851;SDS011;23691;52.486;4.650;2023-06-22T01:46:34;34.63;;;20.43;;
37851;SDS011;23691;52.486;4.650;2023-06-22T01:49:03;32.08;;;19.35;;
37851;SDS011;23691;52.486;4.650;2023-06-22T01:51:30;32.05;;;19.58;;
37851;SDS011;23691;52.486;4.650;2023-06-22T01:53:58;31.60;;;19.15;;
37851;SDS011;23691;52.486;4.650;2023-06-22T01:58:57;29.33;;;17.48;;
37851;SDS011;23691;52.486;4.650;2023-06-22T02:01:31;30.75;;;17.17;;
37851;SDS011;23691;52.486;4.650;2023-06-22T02:04:08;30.02;;;17.73;;
37851;SDS011;23691;52.486;4.650;2023-06-22T02:06:41;30.05;;;17.58;;
37851;SDS011;23691;52.486;4.650;2023-06-22T02:09:09;30.25;;;18.42;;
37851;SDS011;23691;52.486;4.650;2023-06-22T02:11:37;32.70;;;18.73;;
37851;SDS011;23691;52.486;4.650;2023-06-22T02:14:06;33.07;;;18.03;;
37851;SDS011;23691;52.486;4.650;2023-06-22T02:16:33;28.60;;;17.42;;
37851;SDS011;23691;52.486;4.650;2023-06-22T02:19:00;30.25;;;17.83;;
37851;SDS011;23691;52.486;4.650;2023-06-22T02:21:29;32.80;;;19.05;;
37851;SDS011;23691;52.486;4.650;2023-06-22T02:23:56;29.60;;;18.65;;
37851;SDS011;23691;52.486;4.650;2023-06-22T02:26:22;34.17;;;18.20;;
37851;SDS011;23691;52.486;4.650;2023-06-22T02:28:50;30.85;;;16.40;;
37851;SDS011;23691;52.486;4.650;2023-06-22T02:31:16;28.58;;;16.77;;
37851;SDS011;23691;52.486;4.650;2023-06-22T02:33:41;28.80;;;16.90;;
37851;SDS011;23691;52.486;4.650;2023-06-22T02:36:07;26.88;;;15.65;;
37851;SDS011;23691;52.486;4.650;2023-06-22T02:38:34;27.83;;;16.15;;
37851;SDS011;23691;52.486;4.650;2023-06-22T02:41:01;26.30;;;15.65;;
37851;SDS011;23691;52.486;4.650;2023-06-22T02:43:27;26.35;;;15.18;;
37851;SDS011;23691;52.486;4.650;2023-06-22T02:45:53;26.83;;;15.48;;
37851;SDS011;23691;52.486;4.650;2023-06-22T02:48:19;27.02;;;15.00;;
37851;SDS011;23691;52.486;4.650;2023-06-22T02:50:44;24.83;;;14.90;;
37851;SDS011;23691;52.486;4.650;2023-06-22T02:53:10;28.83;;;15.43;;
37851;SDS011;23691;52.486;4.650;2023-06-22T02:55:35;26.25;;;14.85;;
37851;SDS011;23691;52.486;4.650;2023-06-22T02:58:00;26.75;;;15.70;;
37851;SDS011;23691;52.486;4.650;2023-06-22T03:00:30;25.88;;;15.48;;
37851;SDS011;23691;52.486;4.650;2023-06-22T03:02:57;26.23;;;15.95;;
37851;SDS011;23691;52.486;4.650;2023-06-22T03:05:22;26.95;;;16.35;;
37851;SDS011;23691;52.486;4.650;2023-06-22T03:07:49;25.13;;;15.85;;
37851;SDS011;23691;52.486;4.650;2023-06-22T03:10:16;29.40;;;16.67;;
37851;SDS011;23691;52.486;4.650;2023-06-22T03:12:42;27.92;;;15.85;;
37851;SDS011;23691;52.486;4.650;2023-06-22T03:15:09;27.25;;;16.58;;
37851;SDS011;23691;52.486;4.650;2023-06-22T03:17:36;28.00;;;16.85;;
37851;SDS011;23691;52.486;4.650;2023-06-22T03:20:04;25.77;;;15.23;;
37851;SDS011;23691;52.486;4.650;2023-06-22T03:22:39;26.70;;;16.17;;
37851;SDS011;23691;52.486;4.650;2023-06-22T03:25:08;25.85;;;15.40;;
37851;SDS011;23691;52.486;4.650;2023-06-22T03:27:38;25.20;;;14.77;;
37851;SDS011;23691;52.486;4.650;2023-06-22T03:30:10;23.30;;;13.77;;
37851;SDS011;23691;52.486;4.650;2023-06-22T03:32:36;25.73;;;14.55;;
37851;SDS011;23691;52.486;4.650;2023-06-22T03:35:02;25.13;;;14.77;;
37851;SDS011;23691;52.486;4.650;2023-06-22T03:37:27;24.20;;;14.30;;
37851;SDS011;23691;52.486;4.650;2023-06-22T03:39:54;26.98;;;14.43;;
37851;SDS011;23691;52.486;4.650;2023-06-22T03:42:20;24.40;;;15.38;;
37851;SDS011;23691;52.486;4.650;2023-06-22T03:44:46;25.80;;;15.00;;
37851;SDS011;23691;52.486;4.650;2023-06-22T03:47:11;25.92;;;14.98;;
37851;SDS011;23691;52.486;4.650;2023-06-22T03:49:37;26.00;;;14.80;;
37851;SDS011;23691;52.486;4.650;2023-06-22T03:52:02;27.17;;;15.32;;
37851;SDS011;23691;52.486;4.650;2023-06-22T03:54:29;29.40;;;16.77;;
37851;SDS011;23691;52.486;4.650;2023-06-22T03:56:57;30.63;;;17.30;;
37851;SDS011;23691;52.486;4.650;2023-06-22T03:59:23;28.92;;;17.17;;
37851;SDS011;23691;52.486;4.650;2023-06-22T04:01:49;32.35;;;17.60;;
37851;SDS011;23691;52.486;4.650;2023-06-22T04:04:15;30.92;;;18.15;;
37851;SDS011;23691;52.486;4.650;2023-06-22T04:06:42;31.25;;;18.42;;
37851;SDS011;23691;52.486;4.650;2023-06-22T04:09:07;31.13;;;18.88;;
37851;SDS011;23691;52.486;4.650;2023-06-22T04:11:32;29.10;;;18.00;;
37851;SDS011;23691;52.486;4.650;2023-06-22T04:13:58;29.70;;;17.98;;
37851;SDS011;23691;52.486;4.650;2023-06-22T04:16:23;31.33;;;18.25;;
37851;SDS011;23691;52.486;4.650;2023-06-22T04:18:49;34.58;;;19.02;;
37851;SDS011;23691;52.486;4.650;2023-06-22T04:21:14;36.00;;;20.38;;
37851;SDS011;23691;52.486;4.650;2023-06-22T04:23:40;36.50;;;21.25;;
37851;SDS011;23691;52.486;4.650;2023-06-22T04:26:05;34.75;;;20.35;;
37851;SDS011;23691;52.486;4.650;2023-06-22T04:28:30;38.45;;;21.40;;
37851;SDS011;23691;52.486;4.650;2023-06-22T04:31:05;34.63;;;20.70;;
37851;SDS011;23691;52.486;4.650;2023-06-22T04:33:31;31.67;;;19.17;;
37851;SDS011;23691;52.486;4.650;2023-06-22T04:35:57;31.47;;;18.97;;
37851;SDS011;23691;52.486;4.650;2023-06-22T04:38:26;33.13;;;19.85;;
37851;SDS011;23691;52.486;4.650;2023-06-22T04:40:51;38.73;;;21.43;;
37851;SDS011;23691;52.486;4.650;2023-06-22T04:43:18;33.05;;;18.92;;
37851;SDS011;23691;52.486;4.650;2023-06-22T04:45:44;34.08;;;20.02;;
37851;SDS011;23691;52.486;4.650;2023-06-22T04:48:11;32.92;;;19.00;;
37851;SDS011;23691;52.486;4.650;2023-06-22T04:50:44;34.50;;;20.85;;
37851;SDS011;23691;52.486;4.650;2023-06-22T04:53:09;34.90;;;20.23;;
37851;SDS011;23691;52.486;4.650;2023-06-22T04:55:40;32.15;;;18.98;;
37851;SDS011;23691;52.486;4.650;2023-06-22T04:58:07;33.65;;;18.63;;
37851;SDS011;23691;52.486;4.650;2023-06-22T05:00:33;29.90;;;18.45;;
37851;SDS011;23691;52.486;4.650;2023-06-22T05:03:01;30.98;;;18.65;;
37851;SDS011;23691;52.486;4.650;2023-06-22T05:05:28;30.43;;;18.17;;
37851;SDS011;23691;52.486;4.650;2023-06-22T05:07:56;31.80;;;19.33;;
37851;SDS011;23691;52.486;4.650;2023-06-22T05:10:25;33.30;;;20.10;;
37851;SDS011;23691;52.486;4.650;2023-06-22T05:12:51;31.65;;;18.20;;
37851;SDS011;23691;52.486;4.650;2023-06-22T05:18:12;30.50;;;17.63;;
37851;SDS011;23691;52.486;4.650;2023-06-22T05:20:38;28.50;;;17.00;;
37851;SDS011;23691;52.486;4.650;2023-06-22T05:23:03;32.92;;;19.15;;
37851;SDS011;23691;52.486;4.650;2023-06-22T05:25:29;32.20;;;18.13;;
37851;SDS011;23691;52.486;4.650;2023-06-22T05:27:55;29.58;;;17.90;;
37851;SDS011;23691;52.486;4.650;2023-06-22T05:30:21;31.23;;;19.20;;
37851;SDS011;23691;52.486;4.650;2023-06-22T05:32:46;30.07;;;16.53;;
37851;SDS011;23691;52.486;4.650;2023-06-22T05:35:12;30.02;;;17.55;;
37851;SDS011;23691;52.486;4.650;2023-06-22T05:37:37;27.30;;;16.20;;
37851;SDS011;23691;52.486;4.650;2023-06-22T05:40:03;27.88;;;16.92;;
37851;SDS011;23691;52.486;4.650;2023-06-22T05:42:29;29.10;;;15.85;;
37851;SDS011;23691;52.486;4.650;2023-06-22T05:44:55;33.38;;;18.58;;
37851;SDS011;23691;52.486;4.650;2023-06-22T05:47:21;33.92;;;18.55;;
37851;SDS011;23691;52.486;4.650;2023-06-22T05:49:48;28.50;;;17.58;;
37851;SDS011;23691;52.486;4.650;2023-06-22T05:52:15;30.53;;;17.63;;
37851;SDS011;23691;52.486;4.650;2023-06-22T05:54:40;32.20;;;17.77;;
37851;SDS011;23691;52.486;4.650;2023-06-22T05:57:06;26.75;;;16.65;;
37851;SDS011;23691;52.486;4.650;2023-06-22T05:59:32;28.38;;;15.75;;
37851;SDS011;23691;52.486;4.650;2023-06-22T06:01:57;26.50;;;15.70;;
37851;SDS011;23691;52.486;4.650;2023-06-22T06:04:23;30.00;;;17.52;;
37851;SDS011;23691;52.486;4.650;2023-06-22T06:06:49;23.58;;;15.07;;
37851;SDS011;23691;52.486;4.650;2023-06-22T06:09:14;30.42;;;17.90;;
37851;SDS011;23691;52.486;4.650;2023-06-22T06:11:40;27.85;;;15.98;;
37851;SDS011;23691;52.486;4.650;2023-06-22T06:14:05;25.80;;;15.38;;
37851;SDS011;23691;52.486;4.650;2023-06-22T06:16:31;30.07;;;16.03;;
37851;SDS011;23691;52.486;4.650;2023-06-22T06:18:57;32.63;;;18.07;;
37851;SDS011;23691;52.486;4.650;2023-06-22T06:21:23;30.27;;;18.42;;
37851;SDS011;23691;52.486;4.650;2023-06-22T06:23:49;29.63;;;15.83;;
37851;SDS011;23691;52.486;4.650;2023-06-22T06:26:14;30.00;;;16.17;;
37851;SDS011;23691;52.486;4.650;2023-06-22T06:28:43;28.98;;;18.00;;
37851;SDS011;23691;52.486;4.650;2023-06-22T06:31:09;26.40;;;15.98;;
37851;SDS011;23691;52.486;4.650;2023-06-22T06:33:35;30.87;;;17.63;;
37851;SDS011;23691;52.486;4.650;2023-06-22T06:36:01;26.77;;;15.00;;
37851;SDS011;23691;52.486;4.650;2023-06-22T06:38:29;28.90;;;17.30;;
37851;SDS011;23691;52.486;4.650;2023-06-22T06:40:55;27.48;;;16.25;;
37851;SDS011;23691;52.486;4.650;2023-06-22T06:43:20;31.50;;;18.33;;
37851;SDS011;23691;52.486;4.650;2023-06-22T06:45:46;28.83;;;17.65;;
37851;SDS011;23691;52.486;4.650;2023-06-22T06:48:11;31.87;;;18.30;;
37851;SDS011;23691;52.486;4.650;2023-06-22T06:50:37;29.52;;;17.05;;
37851;SDS011;23691;52.486;4.650;2023-06-22T06:53:02;29.45;;;16.75;;
37851;SDS011;23691;52.486;4.650;2023-06-22T06:55:27;24.63;;;15.48;;
37851;SDS011;23691;52.486;4.650;2023-06-22T06:57:53;30.92;;;16.65;;
37851;SDS011;23691;52.486;4.650;2023-06-22T07:00:19;32.13;;;17.42;;
37851;SDS011;23691;52.486;4.650;2023-06-22T07:02:45;29.60;;;16.83;;
37851;SDS011;23691;52.486;4.650;2023-06-22T07:07:38;27.23;;;15.70;;
37851;SDS011;23691;52.486;4.650;2023-06-22T07:10:07;23.60;;;14.90;;
37851;SDS011;23691;52.486;4.650;2023-06-22T07:12:33;25.55;;;15.07;;
37851;SDS011;23691;52.486;4.650;2023-06-22T07:15:17;24.58;;;14.48;;
37851;SDS011;23691;52.486;4.650;2023-06-22T07:17:43;22.20;;;14.32;;
37851;SDS011;23691;52.486;4.650;2023-06-22T07:20:11;26.75;;;15.32;;
37851;SDS011;23691;52.486;4.650;2023-06-22T07:22:42;23.63;;;13.52;;
37851;SDS011;23691;52.486;4.650;2023-06-22T07:25:09;22.33;;;12.27;;
37851;SDS011;23691;52.486;4.650;2023-06-22T07:27:36;22.17;;;11.23;;
37851;SDS011;23691;52.486;4.650;2023-06-22T07:30:03;19.70;;;11.13;;
37851;SDS011;23691;52.486;4.650;2023-06-22T07:32:29;18.30;;;10.18;;
37851;SDS011;23691;52.486;4.650;2023-06-22T07:34:55;18.58;;;9.80;;
37851;SDS011;23691;52.486;4.650;2023-06-22T07:37:20;21.90;;;11.23;;
37851;SDS011;23691;52.486;4.650;2023-06-22T07:39:46;20.30;;;10.23;;
37851;SDS011;23691;52.486;4.650;2023-06-22T07:42:11;18.67;;;9.77;;
37851;SDS011;23691;52.486;4.650;2023-06-22T07:44:43;17.02;;;9.07;;
37851;SDS011;23691;52.486;4.650;2023-06-22T07:47:09;15.27;;;7.50;;
37851;SDS011;23691;52.486;4.650;2023-06-22T07:49:34;15.90;;;8.23;;
37851;SDS011;23691;52.486;4.650;2023-06-22T07:52:00;17.55;;;7.93;;
37851;SDS011;23691;52.486;4.650;2023-06-22T07:54:26;14.88;;;7.15;;
37851;SDS011;23691;52.486;4.650;2023-06-22T07:56:51;17.42;;;8.25;;
37851;SDS011;23691;52.486;4.650;2023-06-22T07:59:18;16.58;;;7.82;;
37851;SDS011;23691;52.486;4.650;2023-06-22T08:01:44;20.17;;;9.00;;
37851;SDS011;23691;52.486;4.650;2023-06-22T08:04:09;19.80;;;9.00;;
37851;SDS011;23691;52.486;4.650;2023-06-22T08:06:34;17.65;;;9.38;;
37851;SDS011;23691;52.486;4.650;2023-06-22T08:09:00;17.30;;;10.35;;
37851;SDS011;23691;52.486;4.650;2023-06-22T08:11:25;17.08;;;8.85;;
37851;SDS011;23691;52.486;4.650;2023-06-22T08:13:51;21.60;;;11.65;;
37851;SDS011;23691;52.486;4.650;2023-06-22T08:16:17;19.48;;;10.90;;
37851;SDS011;23691;52.486;4.650;2023-06-22T08:18:43;21.35;;;12.80;;
37851;SDS011;23691;52.486;4.650;2023-06-22T08:21:08;21.63;;;12.15;;
37851;SDS011;23691;52.486;4.650;2023-06-22T08:23:34;23.85;;;14.27;;
37851;SDS011;23691;52.486;4.650;2023-06-22T08:26:00;22.63;;;13.15;;
37851;SDS011;23691;52.486;4.650;2023-06-22T08:28:26;21.20;;;13.43;;
37851;SDS011;23691;52.486;4.650;2023-06-22T08:30:51;20.17;;;12.60;;
37851;SDS011;23691;52.486;4.650;2023-06-22T08:33:16;20.52;;;13.55;;
37851;SDS011;23691;52.486;4.650;2023-06-22T08:35:42;21.80;;;13.10;;
37851;SDS011;23691;52.486;4.650;2023-06-22T08:38:08;18.50;;;11.10;;
37851;SDS011;23691;52.486;4.650;2023-06-22T08:40:34;19.95;;;11.82;;
37851;SDS011;23691;52.486;4.650;2023-06-22T08:42:59;19.05;;;10.98;;
37851;SDS011;23691;52.486;4.650;2023-06-22T08:45:25;16.60;;;9.23;;
37851;SDS011;23691;52.486;4.650;2023-06-22T08:47:50;20.30;;;9.63;;
37851;SDS011;23691;52.486;4.650;2023-06-22T08:50:16;14.77;;;9.00;;
37851;SDS011;23691;52.486;4.650;2023-06-22T08:52:41;14.20;;;7.07;;
37851;SDS011;23691;52.486;4.650;2023-06-22T08:55:07;12.75;;;6.80;;
37851;SDS011;23691;52.486;4.650;2023-06-22T08:57:34;15.57;;;8.30;;
37851;SDS011;23691;52.486;4.650;2023-06-22T08:59:59;16.08;;;8.65;;
37851;SDS011;23691;52.486;4.650;2023-06-22T09:02:28;16.60;;;9.27;;
37851;SDS011;23691;52.486;4.650;2023-06-22T09:04:58;16.73;;;9.38;;
37851;SDS011;23691;52.486;4.650;2023-06-22T09:07:24;16.63;;;9.43;;
37851;SDS011;23691;52.486;4.650;2023-06-22T09:09:51;17.23;;;8.40;;
37851;SDS011;23691;52.486;4.650;2023-06-22T09:12:17;15.52;;;8.48;;
37851;SDS011;23691;52.486;4.650;2023-06-22T09:14:45;17.10;;;9.10;;
37851;SDS011;23691;52.486;4.650;2023-06-22T09:17:12;16.58;;;8.57;;
37851;SDS011;23691;52.486;4.650;2023-06-22T09:19:38;18.03;;;8.63;;
37851;SDS011;23691;52.486;4.650;2023-06-22T09:22:03;17.70;;;9.50;;
37851;SDS011;23691;52.486;4.650;2023-06-22T09:26:56;19.15;;;8.57;;
37851;SDS011;23691;52.486;4.650;2023-06-22T09:29:22;14.80;;;6.78;;
37851;SDS011;23691;52.486;4.650;2023-06-22T09:31:48;16.05;;;8.40;;
37851;SDS011;23691;52.486;4.650;2023-06-22T09:34:13;16.58;;;8.15;;
37851;SDS011;23691;52.486;4.650;2023-06-22T09:36:38;16.48;;;8.32;;
37851;SDS011;23691;52.486;4.650;2023-06-22T09:39:06;15.63;;;8.50;;
37851;SDS011;23691;52.486;4.650;2023-06-22T09:41:32;16.70;;;7.25;;
37851;SDS011;23691;52.486;4.650;2023-06-22T09:43:57;17.98;;;7.70;;
37851;SDS011;23691;52.486;4.650;2023-06-22T09:46:23;14.77;;;7.75;;
37851;SDS011;23691;52.486;4.650;2023-06-22T09:48:50;14.30;;;7.78;;
37851;SDS011;23691;52.486;4.650;2023-06-22T09:51:16;16.77;;;7.43;;
37851;SDS011;23691;52.486;4.650;2023-06-22T09:53:41;13.85;;;7.03;;
37851;SDS011;23691;52.486;4.650;2023-06-22T09:56:07;17.60;;;6.95;;
37851;SDS011;23691;52.486;4.650;2023-06-22T09:58:36;14.25;;;6.53;;
37851;SDS011;23691;52.486;4.650;2023-06-22T10:01:01;13.60;;;6.15;;
37851;SDS011;23691;52.486;4.650;2023-06-22T10:03:27;15.00;;;6.18;;
37851;SDS011;23691;52.486;4.650;2023-06-22T10:05:52;13.23;;;5.82;;
37851;SDS011;23691;52.486;4.650;2023-06-22T10:08:18;13.02;;;6.30;;
37851;SDS011;23691;52.486;4.650;2023-06-22T10:10:43;10.23;;;5.32;;
37851;SDS011;23691;52.486;4.650;2023-06-22T10:13:09;11.07;;;4.95;;
37851;SDS011;23691;52.486;4.650;2023-06-22T10:15:36;12.25;;;5.40;;
37851;SDS011;23691;52.486;4.650;2023-06-22T10:18:02;11.18;;;5.55;;
37851;SDS011;23691;52.486;4.650;2023-06-22T10:20:28;12.97;;;5.80;;
37851;SDS011;23691;52.486;4.650;2023-06-22T10:22:53;13.27;;;5.50;;
37851;SDS011;23691;52.486;4.650;2023-06-22T10:25:18;11.85;;;5.05;;
37851;SDS011;23691;52.486;4.650;2023-06-22T10:27:44;10.73;;;5.22;;
37851;SDS011;23691;52.486;4.650;2023-06-22T10:30:10;12.57;;;5.50;;
37851;SDS011;23691;52.486;4.650;2023-06-22T10:32:40;10.45;;;5.15;;
37851;SDS011;23691;52.486;4.650;2023-06-22T10:35:08;9.43;;;4.47;;
37851;SDS011;23691;52.486;4.650;2023-06-22T10:37:35;12.20;;;5.63;;
37851;SDS011;23691;52.486;4.650;2023-06-22T10:40:01;13.60;;;4.50;;
37851;SDS011;23691;52.486;4.650;2023-06-22T10:42:28;10.73;;;4.67;;
37851;SDS011;23691;52.486;4.650;2023-06-22T10:44:53;11.07;;;2.92;;
37851;SDS011;23691;52.486;4.650;2023-06-22T10:47:18;8.80;;;3.13;;
37851;SDS011;23691;52.486;4.650;2023-06-22T10:49:44;10.75;;;3.60;;
37851;SDS011;23691;52.486;4.650;2023-06-22T10:52:09;8.95;;;3.30;;
37851;SDS011;23691;52.486;4.650;2023-06-22T10:54:35;10.93;;;4.32;;
37851;SDS011;23691;52.486;4.650;2023-06-22T10:57:02;10.93;;;4.10;;
37851;SDS011;23691;52.486;4.650;2023-06-22T10:59:27;13.87;;;5.50;;
37851;SDS011;23691;52.486;4.650;2023-06-22T11:01:58;10.93;;;4.55;;
37851;SDS011;23691;52.486;4.650;2023-06-22T11:04:24;9.40;;;4.65;;
37851;SDS011;23691;52.486;4.650;2023-06-22T11:06:49;11.25;;;4.38;;
37851;SDS011;23691;52.486;4.650;2023-06-22T11:09:16;11.13;;;4.13;;
37851;SDS011;23691;52.486;4.650;2023-06-22T11:11:49;12.05;;;4.60;;
37851;SDS011;23691;52.486;4.650;2023-06-22T11:14:16;13.07;;;4.40;;
37851;SDS011;23691;52.486;4.650;2023-06-22T11:16:41;10.37;;;5.13;;
37851;SDS011;23691;52.486;4.650;2023-06-22T11:19:07;11.53;;;5.10;;
37851;SDS011;23691;52.486;4.650;2023-06-22T11:21:33;9.57;;;4.60;;
37851;SDS011;23691;52.486;4.650;2023-06-22T11:23:58;11.77;;;4.50;;
37851;SDS011;23691;52.486;4.650;2023-06-22T11:26:25;10.13;;;3.77;;
37851;SDS011;23691;52.486;4.650;2023-06-22T11:28:52;8.90;;;3.60;;
37851;SDS011;23691;52.486;4.650;2023-06-22T11:31:19;12.13;;;3.70;;
37851;SDS011;23691;52.486;4.650;2023-06-22T11:33:44;9.97;;;3.63;;
37851;SDS011;23691;52.486;4.650;2023-06-22T11:36:11;10.35;;;3.40;;
37851;SDS011;23691;52.486;4.650;2023-06-22T11:38:37;7.25;;;2.85;;
37851;SDS011;23691;52.486;4.650;2023-06-22T11:41:05;11.93;;;4.40;;
37851;SDS011;23691;52.486;4.650;2023-06-22T11:43:31;10.33;;;3.83;;
37851;SDS011;23691;52.486;4.650;2023-06-22T11:45:56;9.48;;;3.83;;
37851;SDS011;23691;52.486;4.650;2023-06-22T11:48:23;7.03;;;2.72;;
37851;SDS011;23691;52.486;4.650;2023-06-22T11:50:49;9.27;;;3.75;;
37851;SDS011;23691;52.486;4.650;2023-06-22T11:53:15;8.63;;;3.28;;
37851;SDS011;23691;52.486;4.650;2023-06-22T11:55:42;10.32;;;3.90;;
37851;SDS011;23691;52.486;4.650;2023-06-22T11:58:09;9.45;;;3.75;;
37851;SDS011;23691;52.486;4.650;2023-06-22T12:00:34;8.93;;;4.25;;
37851;SDS011;23691;52.486;4.650;2023-06-22T12:02:59;10.90;;;4.97;;
37851;SDS011;23691;52.486;4.650;2023-06-22T12:05:25;9.40;;;4.07;;
37851;SDS011;23691;52.486;4.650;2023-06-22T12:07:53;11.97;;;5.77;;
37851;SDS011;23691;52.486;4.650;2023-06-22T12:10:20;11.57;;;5.72;;
37851;SDS011;23691;52.486;4.650;2023-06-22T12:12:46;13.13;;;5.55;;
37851;SDS011;23691;52.486;4.650;2023-06-22T12:15:12;15.13;;;6.50;;
37851;SDS011;23691;52.486;4.650;2023-06-22T12:17:38;14.85;;;6.63;;
37851;SDS011;23691;52.486;4.650;2023-06-22T12:20:05;11.30;;;5.60;;
37851;SDS011;23691;52.486;4.650;2023-06-22T12:22:32;12.10;;;5.97;;
37851;SDS011;23691;52.486;4.650;2023-06-22T12:24:57;13.82;;;6.07;;
37851;SDS011;23691;52.486;4.650;2023-06-22T12:27:23;11.38;;;5.15;;
37851;SDS011;23691;52.486;4.650;2023-06-22T12:32:16;15.02;;;6.20;;
37851;SDS011;23691;52.486;4.650;2023-06-22T12:34:42;13.45;;;6.05;;
37851;SDS011;23691;52.486;4.650;2023-06-22T12:37:08;15.23;;;6.47;;
37851;SDS011;23691;52.486;4.650;2023-06-22T12:39:34;13.93;;;6.17;;
37851;SDS011;23691;52.486;4.650;2023-06-22T12:42:00;15.77;;;6.33;;
37851;SDS011;23691;52.486;4.650;2023-06-22T12:44:25;14.03;;;6.30;;
37851;SDS011;23691;52.486;4.650;2023-06-22T12:46:51;13.68;;;6.38;;
37851;SDS011;23691;52.486;4.650;2023-06-22T12:49:16;13.95;;;6.00;;
37851;SDS011;23691;52.486;4.650;2023-06-22T12:51:42;12.40;;;5.13;;
37851;SDS011;23691;52.486;4.650;2023-06-22T12:54:09;10.68;;;5.00;;
37851;SDS011;23691;52.486;4.650;2023-06-22T12:56:36;12.37;;;5.90;;
37851;SDS011;23691;52.486;4.650;2023-06-22T12:59:03;13.90;;;6.30;;
37851;SDS011;23691;52.486;4.650;2023-06-22T13:01:30;12.37;;;6.10;;
37851;SDS011;23691;52.486;4.650;2023-06-22T13:03:57;12.85;;;6.85;;
37851;SDS011;23691;52.486;4.650;2023-06-22T13:06:24;10.63;;;4.87;;
37851;SDS011;23691;52.486;4.650;2023-06-22T13:08:49;11.87;;;5.10;;
37851;SDS011;23691;52.486;4.650;2023-06-22T13:11:15;13.95;;;5.85;;
37851;SDS011;23691;52.486;4.650;2023-06-22T13:13:40;11.27;;;5.07;;
37851;SDS011;23691;52.486;4.650;2023-06-22T13:16:06;10.30;;;5.07;;
37851;SDS011;23691;52.486;4.650;2023-06-22T13:18:32;11.10;;;5.15;;
37851;SDS011;23691;52.486;4.650;2023-06-22T13:21:01;15.63;;;6.03;;
37851;SDS011;23691;52.486;4.650;2023-06-22T13:23:30;14.45;;;5.75;;
37851;SDS011;23691;52.486;4.650;2023-06-22T13:25:57;11.40;;;4.57;;
37851;SDS011;23691;52.486;4.650;2023-06-22T13:30:48;12.15;;;4.68;;
37851;SDS011;23691;52.486;4.650;2023-06-22T13:33:13;10.07;;;4.55;;
37851;SDS011;23691;52.486;4.650;2023-06-22T13:35:40;10.35;;;4.20;;
37851;SDS011;23691;52.486;4.650;2023-06-22T13:38:08;10.38;;;4.18;;
37851;SDS011;23691;52.486;4.650;2023-06-22T13:40:36;11.82;;;4.35;;
37851;SDS011;23691;52.486;4.650;2023-06-22T13:43:05;10.95;;;4.32;;
37851;SDS011;23691;52.486;4.650;2023-06-22T13:45:31;11.13;;;4.75;;
37851;SDS011;23691;52.486;4.650;2023-06-22T13:47:58;14.68;;;4.40;;
37851;SDS011;23691;52.486;4.650;2023-06-22T13:50:23;12.15;;;4.72;;
37851;SDS011;23691;52.486;4.650;2023-06-22T13:52:49;12.15;;;4.38;;
37851;SDS011;23691;52.486;4.650;2023-06-22T13:55:14;12.95;;;4.30;;
37851;SDS011;23691;52.486;4.650;2023-06-22T13:57:40;9.50;;;4.13;;
37851;SDS011;23691;52.486;4.650;2023-06-22T14:00:06;8.30;;;3.57;;
37851;SDS011;23691;52.486;4.650;2023-06-22T14:02:37;11.03;;;4.50;;
37851;SDS011;23691;52.486;4.650;2023-06-22T14:05:03;10.63;;;4.03;;
37851;SDS011;23691;52.486;4.650;2023-06-22T14:07:29;9.15;;;3.85;;
37851;SDS011;23691;52.486;4.650;2023-06-22T14:09:54;10.32;;;4.03;;
37851;SDS011;23691;52.486;4.650;2023-06-22T14:12:19;11.68;;;3.95;;
37851;SDS011;23691;52.486;4.650;2023-06-22T14:14:45;13.33;;;3.77;;
37851;SDS011;23691;52.486;4.650;2023-06-22T14:17:11;10.07;;;4.50;;
37851;SDS011;23691;52.486;4.650;2023-06-22T14:19:36;8.80;;;3.53;;
37851;SDS011;23691;52.486;4.650;2023-06-22T14:22:02;9.20;;;4.30;;
37851;SDS011;23691;52.486;4.650;2023-06-22T14:24:28;13.60;;;3.70;;
37851;SDS011;23691;52.486;4.650;2023-06-22T14:26:56;10.40;;;4.63;;
37851;SDS011;23691;52.486;4.650;2023-06-22T14:29:22;9.77;;;4.03;;
37851;SDS011;23691;52.486;4.650;2023-06-22T14:31:47;10.07;;;4.20;;
37851;SDS011;23691;52.486;4.650;2023-06-22T14:34:14;12.57;;;4.50;;
37851;SDS011;23691;52.486;4.650;2023-06-22T14:36:40;9.65;;;4.00;;
37851;SDS011;23691;52.486;4.650;2023-06-22T14:39:05;10.30;;;3.95;;
37851;SDS011;23691;52.486;4.650;2023-06-22T14:41:31;9.15;;;4.15;;
37851;SDS011;23691;52.486;4.650;2023-06-22T14:43:56;9.75;;;4.00;;
37851;SDS011;23691;52.486;4.650;2023-06-22T14:46:22;9.37;;;3.83;;
37851;SDS011;23691;52.486;4.650;2023-06-22T14:48:48;10.52;;;4.00;;
37851;SDS011;23691;52.486;4.650;2023-06-22T14:51:13;8.65;;;3.30;;
37851;SDS011;23691;52.486;4.650;2023-06-22T14:53:39;10.27;;;3.83;;